Time;durP1;ratioP1;P1;durP2;ratioP2;P2;SDS_P1;SDS_P2;PMS_P1;PMS_P2;Temp;Humidity;BMP_temperature;BMP_pressure;BME280_temperature;BME280_humidity;BME280_pressure;Samples;Min_cycle;Max_cycle;Signal;HPM_P1;HPM_P2
2023/07/02 04:01:34;;;;;;;2.37;2.27;;;15.40;99.90;;;;;;5465758;23;21036;-76
2023/07/02 04:04:00;;;;;;;2.13;1.60;;;15.40;99.90;;;;;;4989739;28;20463;-75
2023/07/02 04:06:27;;;;;;;2.23;2.13;;;15.50;99.90;;;;;;4991082;28;20465;-75
2023/07/02 04:08:54;;;;;;;3.30;1.90;;;15.50;99.90;;;;;;4990420;28;20459;-76
2023/07/02 04:11:21;;;;;;;1.80;1.70;;;15.50;99.90;;;;;;4990710;28;20482;-76
2023/07/02 04:13:47;;;;;;;2.23;1.37;;;15.50;99.90;;;;;;4990268;28;20467;-76
2023/07/02 04:16:14;;;;;;;8.70;2.43;;;15.50;99.90;;;;;;4990424;28;20467;-75
2023/07/02 04:18:42;;;;;;;6.60;2.10;;;15.50;99.90;;;;;;4991066;28;20866;-71
2023/07/02 04:21:09;;;;;;;1.30;1.30;;;15.50;99.90;;;;;;4990786;28;20482;-72
2023/07/02 04:23:35;;;;;;;2.13;2.03;;;15.60;99.90;;;;;;4990276;28;21114;-73
2023/07/02 04:26:02;;;;;;;4.77;1.37;;;15.70;99.90;;;;;;4990456;28;20485;-72
2023/07/02 04:28:29;;;;;;;1.93;1.80;;;16.00;99.90;;;;;;4990329;28;20562;-71
2023/07/02 04:30:55;;;;;;;2.30;2.00;;;16.30;99.90;;;;;;4990140;28;20842;-71
2023/07/02 04:33:22;;;;;;;2.93;2.70;;;16.30;99.90;;;;;;4990581;28;20462;-70
2023/07/02 04:35:50;;;;;;;1.10;1.10;;;16.30;99.90;;;;;;4990391;28;20467;-70
2023/07/02 04:38:17;;;;;;;1.57;1.57;;;16.30;99.90;;;;;;4990508;28;20585;-69
2023/07/02 04:40:44;;;;;;;2.20;1.50;;;16.50;99.90;;;;;;4993911;28;20490;-69
2023/07/02 04:43:12;;;;;;;2.23;2.03;;;17.00;99.90;;;;;;4990852;28;20458;-70
2023/07/02 04:45:39;;;;;;;3.27;1.40;;;17.50;99.90;;;;;;4993809;28;20466;-70
2023/07/02 04:48:06;;;;;;;2.60;2.50;;;17.80;99.90;;;;;;4993741;28;20558;-70
2023/07/02 04:50:33;;;;;;;3.60;1.90;;;18.30;99.90;;;;;;4994046;28;20498;-69
2023/07/02 04:53:01;;;;;;;1.40;1.40;;;18.70;99.90;;;;;;4993105;28;20999;-69
2023/07/02 04:55:28;;;;;;;7.03;1.93;;;18.80;99.90;;;;;;4993600;28;20473;-69
2023/07/02 04:57:55;;;;;;;1.33;1.20;;;19.20;99.90;;;;;;4993400;28;20480;-71
2023/07/02 05:00:22;;;;;;;2.23;2.13;;;19.50;99.90;;;;;;4993706;28;20493;-69
2023/07/02 05:02:49;;;;;;;3.27;1.90;;;19.70;99.90;;;;;;4993812;28;20466;-71
2023/07/02 05:05:16;;;;;;;1.50;1.40;;;19.80;99.90;;;;;;4993521;28;20905;-70
2023/07/02 05:07:43;;;;;;;1.47;1.40;;;20.10;99.90;;;;;;4993135;28;20477;-70
2023/07/02 05:10:11;;;;;;;3.00;2.00;;;20.50;99.90;;;;;;4993816;28;20460;-70
2023/07/02 05:12:38;;;;;;;6.20;1.97;;;20.60;99.90;;;;;;4993248;28;20472;-70
2023/07/02 05:15:05;;;;;;;1.80;1.70;;;20.80;99.90;;;;;;4993348;28;20958;-70
2023/07/02 05:17:34;;;;;;;1.87;1.77;;;20.90;99.90;;;;;;4993309;28;20466;-71
2023/07/02 05:20:01;;;;;;;2.40;2.30;;;20.80;99.90;;;;;;4993281;28;20770;-70
2023/07/02 05:22:27;;;;;;;2.03;2.03;;;20.70;99.90;;;;;;4993098;28;20493;-71
2023/07/02 05:24:54;;;;;;;2.30;1.70;;;20.30;99.90;;;;;;4992497;28;20480;-70
2023/07/02 05:27:22;;;;;;;1.70;1.60;;;20.10;99.90;;;;;;4993578;28;20835;-70
2023/07/02 05:29:49;;;;;;;1.20;1.10;;;20.10;99.90;;;;;;4992914;28;20463;-70
2023/07/02 05:32:16;;;;;;;2.57;1.97;;;19.80;99.90;;;;;;4993504;28;20486;-71
2023/07/02 05:34:42;;;;;;;1.47;1.37;;;19.70;99.90;;;;;;4992853;28;20467;-70
2023/07/02 05:37:09;;;;;;;2.40;2.30;;;19.80;99.90;;;;;;4993576;28;20466;-70
2023/07/02 05:39:36;;;;;;;1.23;1.23;;;20.00;99.90;;;;;;4992560;28;20491;-70
2023/07/02 05:42:02;;;;;;;2.67;2.47;;;20.00;99.90;;;;;;4990937;28;20496;-71
2023/07/02 05:44:30;;;;;;;2.50;2.40;;;20.40;99.90;;;;;;4992081;28;20472;-69
2023/07/02 05:46:57;;;;;;;2.40;1.70;;;20.40;99.90;;;;;;4993103;28;20468;-70
2023/07/02 05:49:24;;;;;;;3.20;1.80;;;20.70;99.90;;;;;;4993527;28;20464;-70
2023/07/02 05:51:51;;;;;;;3.70;2.43;;;20.90;99.90;;;;;;4994179;28;20483;-70
2023/07/02 05:54:17;;;;;;;2.67;2.07;;;20.80;99.90;;;;;;4992756;28;20485;-70
2023/07/02 05:56:44;;;;;;;2.27;1.90;;;20.70;99.90;;;;;;4992901;28;20972;-69
2023/07/02 05:59:12;;;;;;;1.47;1.47;;;20.70;99.90;;;;;;4992054;28;21038;-71
2023/07/02 06:01:40;;;;;;;1.73;1.63;;;21.10;99.90;;;;;;4992494;28;20493;-70
2023/07/02 06:04:07;;;;;;;7.40;2.67;;;21.40;99.90;;;;;;4992383;28;20486;-70
2023/07/02 06:06:33;;;;;;;1.80;1.70;;;21.80;99.90;;;;;;4992772;28;20802;-70
2023/07/02 06:09:00;;;;;;;3.03;2.17;;;22.10;99.90;;;;;;4991953;28;20469;-69
2023/07/02 06:11:27;;;;;;;2.40;2.20;;;22.10;99.90;;;;;;4992038;28;20509;-70
2023/07/02 06:13:54;;;;;;;2.03;1.93;;;22.20;99.90;;;;;;4991963;28;20491;-72
2023/07/02 06:16:21;;;;;;;14.20;1.97;;;22.30;99.90;;;;;;4992169;28;20555;-69
2023/07/02 06:18:49;;;;;;;1.90;1.80;;;22.70;99.90;;;;;;4991925;28;20467;-68
2023/07/02 06:21:16;;;;;;;2.13;1.70;;;22.90;99.90;;;;;;4992482;28;20576;-69
2023/07/02 06:23:44;;;;;;;2.23;1.90;;;23.00;99.90;;;;;;4991593;28;20474;-71
2023/07/02 06:26:11;;;;;;;2.27;2.17;;;23.30;99.90;;;;;;4991867;28;20501;-68
2023/07/02 06:28:39;;;;;;;2.37;1.40;;;23.10;99.90;;;;;;4991702;28;20472;-70
2023/07/02 06:31:06;;;;;;;2.10;2.00;;;23.30;99.90;;;;;;4991756;28;20478;-70
2023/07/02 06:33:33;;;;;;;3.50;2.00;;;23.40;99.90;;;;;;4991752;28;20471;-70
2023/07/02 06:36:01;;;;;;;3.43;1.93;;;23.90;99.90;;;;;;4992006;28;20573;-69
2023/07/02 06:38:28;;;;;;;3.10;2.67;;;24.00;99.90;;;;;;4991575;28;20501;-70
2023/07/02 06:40:55;;;;;;;1.53;1.43;;;24.20;99.90;;;;;;4991891;28;20498;-70
2023/07/02 06:43:21;;;;;;;2.70;2.30;;;24.20;99.90;;;;;;4989434;28;20473;-71
2023/07/02 06:45:48;;;;;;;2.27;2.07;;;24.20;99.90;;;;;;4991365;28;20942;-71
2023/07/02 06:48:17;;;;;;;2.87;2.67;;;24.30;99.90;;;;;;4991655;28;20473;-70
2023/07/02 06:50:45;;;;;;;1.97;1.87;;;24.30;99.90;;;;;;4992106;28;20540;-69
2023/07/02 06:53:13;;;;;;;3.33;1.87;;;24.10;99.90;;;;;;4991799;28;20466;-69
2023/07/02 06:55:40;;;;;;;2.90;1.70;;;23.80;99.90;;;;;;4991923;28;20954;-70
2023/07/02 06:58:07;;;;;;;3.17;2.00;;;23.80;99.90;;;;;;4991335;28;21007;-70
2023/07/02 07:00:35;;;;;;;3.27;2.17;;;23.90;99.90;;;;;;4991274;28;20489;-71
2023/07/02 07:03:02;;;;;;;1.80;1.67;;;23.90;99.90;;;;;;4991832;28;20565;-72
2023/07/02 07:05:29;;;;;;;2.53;2.43;;;23.70;99.90;;;;;;4991753;28;20468;-70
2023/07/02 07:07:56;;;;;;;2.80;2.60;;;23.50;99.90;;;;;;4991123;28;20485;-71
2023/07/02 07:10:24;;;;;;;2.53;2.43;;;23.90;99.90;;;;;;4991656;28;20468;-69
2023/07/02 07:12:51;;;;;;;4.47;3.10;;;23.90;99.90;;;;;;4991417;28;20470;-70
2023/07/02 07:15:17;;;;;;;3.70;3.37;;;23.90;99.90;;;;;;4991828;28;20477;-69
2023/07/02 07:17:44;;;;;;;3.80;2.63;;;24.00;99.90;;;;;;4991749;28;20795;-71
2023/07/02 07:20:12;;;;;;;2.70;2.50;;;23.90;99.90;;;;;;4991785;28;20501;-69
2023/07/02 07:22:39;;;;;;;2.57;2.47;;;24.00;99.90;;;;;;4991072;28;20773;-70
2023/07/02 07:25:06;;;;;;;2.30;2.20;;;23.90;99.90;;;;;;4991236;28;20485;-70
2023/07/02 07:27:34;;;;;;;1.80;1.70;;;24.10;99.90;;;;;;4991319;28;20470;-70
2023/07/02 07:30:01;;;;;;;2.70;2.47;;;24.10;99.90;;;;;;4991808;28;20455;-70
2023/07/02 07:32:28;;;;;;;2.50;2.30;;;23.90;99.90;;;;;;4991513;28;20570;-69
2023/07/02 07:34:54;;;;;;;3.03;2.83;;;23.50;99.90;;;;;;4991551;28;20518;-71
2023/07/02 07:37:21;;;;;;;4.80;3.10;;;23.40;99.90;;;;;;4991506;28;20464;-71
2023/07/02 07:39:48;;;;;;;2.73;2.53;;;23.50;99.90;;;;;;4990700;28;20511;-69
2023/07/02 07:42:16;;;;;;;2.50;2.40;;;23.70;99.90;;;;;;4991188;28;20493;-71
2023/07/02 07:44:45;;;;;;;3.77;2.27;;;23.80;99.90;;;;;;4990487;28;20468;-70
2023/07/02 07:47:12;;;;;;;2.63;2.43;;;24.10;99.90;;;;;;4991570;28;20465;-69
2023/07/02 07:49:39;;;;;;;2.33;2.13;;;23.80;99.90;;;;;;4991159;28;20464;-71
2023/07/02 07:52:06;;;;;;;2.47;2.30;;;23.60;99.90;;;;;;4991392;28;20850;-69
2023/07/02 07:54:34;;;;;;;4.93;3.03;;;23.50;99.90;;;;;;4991535;28;20516;-70
2023/07/02 07:57:01;;;;;;;4.13;2.43;;;23.70;99.90;;;;;;4992743;28;20464;-70
2023/07/02 07:59:28;;;;;;;4.97;2.03;;;23.00;99.90;;;;;;4991785;28;20997;-70
2023/07/02 08:01:56;;;;;;;4.17;3.00;;;22.50;99.90;;;;;;4992607;28;20506;-70
2023/07/02 08:04:22;;;;;;;3.70;2.03;;;22.40;99.90;;;;;;4991100;28;20472;-69
2023/07/02 08:06:49;;;;;;;4.20;2.70;;;22.60;99.90;;;;;;4991016;28;20891;-71
2023/07/02 08:09:16;;;;;;;2.43;1.90;;;22.20;99.90;;;;;;4990522;28;20556;-70
2023/07/02 08:11:42;;;;;;;4.00;2.40;;;21.70;99.90;;;;;;4991080;28;20494;-69
2023/07/02 08:14:09;;;;;;;2.00;1.87;;;21.40;99.90;;;;;;4994390;28;20462;-69
2023/07/02 08:16:36;;;;;;;3.10;2.80;;;21.00;99.90;;;;;;4995295;28;20459;-70
2023/07/02 08:19:04;;;;;;;9.90;3.70;;;20.70;99.90;;;;;;4994930;28;20803;-68
2023/07/02 08:21:31;;;;;;;4.17;1.30;;;20.70;99.90;;;;;;4994798;28;20580;-68
2023/07/02 08:23:57;;;;;;;3.13;2.37;;;20.70;99.90;;;;;;4994261;28;20786;-71
2023/07/02 08:26:24;;;;;;;3.47;2.33;;;20.70;99.90;;;;;;4995244;28;20538;-69
2023/07/02 08:28:51;;;;;;;2.83;2.57;;;20.80;99.90;;;;;;4994915;28;20503;-68
2023/07/02 08:31:18;;;;;;;2.07;1.97;;;21.20;99.90;;;;;;4994785;28;20573;-69
2023/07/02 08:33:44;;;;;;;3.20;2.40;;;21.70;99.90;;;;;;4994826;28;20464;-69
2023/07/02 08:36:13;;;;;;;2.50;2.30;;;22.10;99.90;;;;;;4994793;28;20557;-69
2023/07/02 08:38:43;;;;;;;2.93;2.30;;;22.30;99.90;;;;;;4995031;28;20478;-69
2023/07/02 08:41:09;;;;;;;8.40;2.67;;;22.10;99.90;;;;;;4995642;28;20569;-68
2023/07/02 08:43:37;;;;;;;4.63;3.30;;;22.50;99.90;;;;;;4994130;28;20463;-70
2023/07/02 08:46:04;;;;;;;3.20;1.80;;;22.30;99.90;;;;;;4994314;28;20468;-68
2023/07/02 08:48:31;;;;;;;3.80;2.27;;;22.10;99.90;;;;;;4994068;28;20502;-68
2023/07/02 08:50:58;;;;;;;1.70;1.60;;;22.00;99.90;;;;;;4994862;28;20537;-68
2023/07/02 08:53:29;;;;;;;2.27;2.10;;;22.20;99.90;;;;;;4993864;28;20477;-69
2023/07/02 08:55:56;;;;;;;2.27;1.83;;;22.30;99.90;;;;;;4994315;28;20466;-69
2023/07/02 08:58:23;;;;;;;2.30;2.20;;;22.50;99.90;;;;;;4994091;28;20474;-69
2023/07/02 09:01:06;;;;;;;2.80;2.40;;;22.40;99.90;;;;;;4994153;28;20873;-68
2023/07/02 09:03:33;;;;;;;2.40;2.30;;;22.40;99.90;;;;;;4994355;28;20890;-69
2023/07/02 09:06:00;;;;;;;2.00;1.90;;;22.50;99.90;;;;;;4993837;28;20977;-69
2023/07/02 09:08:29;;;;;;;3.27;3.17;;;22.40;99.90;;;;;;4993428;28;20494;-70
2023/07/02 09:11:05;;;;;;;2.90;2.60;;;22.30;99.90;;;;;;4993837;28;20487;-70
2023/07/02 09:13:33;;;;;;;2.40;2.30;;;22.10;99.90;;;;;;4993542;28;20469;-69
2023/07/02 09:15:59;;;;;;;2.10;2.00;;;21.80;99.90;;;;;;4994015;28;20465;-68
2023/07/02 09:18:26;;;;;;;1.87;1.77;;;21.80;99.90;;;;;;4993878;28;20469;-68
2023/07/02 09:20:55;;;;;;;2.63;2.43;;;21.90;99.90;;;;;;4993841;28;20585;-71
2023/07/02 09:23:22;;;;;;;4.43;2.40;;;22.20;99.90;;;;;;4993473;28;20509;-69
2023/07/02 09:25:50;;;;;;;2.67;2.47;;;22.30;99.90;;;;;;4993047;28;20841;-70
2023/07/02 09:28:19;;;;;;;3.47;1.97;;;22.30;99.90;;;;;;4993650;28;20955;-70
2023/07/02 09:30:53;;;;;;;2.30;2.17;;;22.50;99.90;;;;;;4993861;28;20558;-69
2023/07/02 09:33:20;;;;;;;2.10;2.00;;;22.40;99.90;;;;;;4993430;28;20472;-69
2023/07/02 09:35:46;;;;;;;2.80;2.03;;;22.40;99.90;;;;;;4993462;28;20467;-69
2023/07/02 09:38:14;;;;;;;2.40;2.30;;;22.40;99.90;;;;;;4993189;28;20558;-68
2023/07/02 09:40:47;;;;;;;2.23;2.13;;;22.30;99.90;;;;;;4993157;28;20869;-69
2023/07/02 09:43:17;;;;;;;2.83;2.07;;;22.30;99.90;;;;;;4992395;28;20624;-69
2023/07/02 09:45:45;;;;;;;1.43;1.43;;;22.20;99.90;;;;;;4993111;28;20466;-69
2023/07/02 09:48:15;;;;;;;1.90;1.90;;;22.20;99.90;;;;;;4993346;28;20883;-68
2023/07/02 09:50:42;;;;;;;2.17;2.03;;;22.00;99.90;;;;;;4993131;28;20993;-70
2023/07/02 09:53:09;;;;;;;2.17;2.07;;;21.90;99.90;;;;;;4992628;28;20482;-69
2023/07/02 09:55:36;;;;;;;3.33;2.40;;;22.10;99.90;;;;;;4993361;28;20464;-69
2023/07/02 09:58:03;;;;;;;2.47;2.23;;;22.30;99.90;;;;;;4992726;28;20555;-70
2023/07/02 10:00:31;;;;;;;1.93;1.80;;;22.10;99.90;;;;;;4993104;28;20492;-69
2023/07/02 10:02:58;;;;;;;2.40;2.17;;;21.90;99.90;;;;;;4993180;28;20463;-69
2023/07/02 10:05:28;;;;;;;2.33;2.13;;;21.60;99.90;;;;;;4992756;28;20501;-70
2023/07/02 10:07:57;;;;;;;1.60;1.60;;;21.60;99.90;;;;;;4992372;28;20470;-68
2023/07/02 10:10:28;;;;;;;2.90;2.47;;;21.50;99.90;;;;;;4993273;28;20816;-68
2023/07/02 10:12:55;;;;;;;4.23;1.90;;;21.50;99.90;;;;;;4992639;28;20477;-69
2023/07/02 10:15:26;;;;;;;1.87;1.77;;;21.50;99.90;;;;;;4992878;28;20466;-68
2023/07/02 10:17:58;;;;;;;2.40;1.90;;;21.50;99.90;;;;;;4993282;28;20848;-69
2023/07/02 10:20:33;;;;;;;2.20;1.47;;;21.70;99.90;;;;;;4992907;28;20493;-69
2023/07/02 10:23:01;;;;;;;3.57;1.97;;;21.90;99.90;;;;;;4992389;28;20451;-70
2023/07/02 10:25:29;;;;;;;2.63;1.67;;;22.00;99.90;;;;;;4992667;28;20524;-69
2023/07/02 10:27:56;;;;;;;1.93;1.80;;;22.30;99.90;;;;;;4991999;28;20477;-69
2023/07/02 10:30:32;;;;;;;8.40;2.40;;;22.20;99.90;;;;;;4992525;28;20466;-70
2023/07/02 10:33:10;;;;;;;3.40;1.57;;;22.10;99.90;;;;;;4992328;28;20505;-69
2023/07/02 10:35:36;;;;;;;2.83;1.80;;;22.00;99.90;;;;;;4991661;28;20465;-69
2023/07/02 10:38:03;;;;;;;1.63;1.53;;;22.00;99.90;;;;;;4991688;28;20549;-70
2023/07/02 10:40:30;;;;;;;1.20;1.13;;;22.10;99.90;;;;;;4992452;28;20585;-70
2023/07/02 10:42:57;;;;;;;1.10;1.10;;;22.10;99.90;;;;;;4991562;28;20463;-69
2023/07/02 10:45:32;;;;;;;1.60;1.50;;;22.10;99.90;;;;;;4991716;28;20465;-70
2023/07/02 10:47:59;;;;;;;1.43;1.40;;;22.20;99.90;;;;;;4992282;28;20524;-69
2023/07/02 10:50:28;;;;;;;1.57;1.47;;;22.10;99.90;;;;;;4993923;28;20469;-72
2023/07/02 10:52:55;;;;;;;1.33;1.17;;;22.00;99.90;;;;;;4995520;28;20914;-70
2023/07/02 10:55:23;;;;;;;1.47;1.37;;;21.80;99.90;;;;;;4996082;28;20462;-70
2023/07/02 10:57:50;;;;;;;1.60;1.60;;;21.60;99.90;;;;;;4993984;28;20929;-70
2023/07/02 11:00:18;;;;;;;1.53;1.40;;;21.40;99.90;;;;;;4993111;28;20474;-70
2023/07/02 11:02:45;;;;;;;1.40;1.37;;;21.20;99.90;;;;;;4992196;28;20492;-70
2023/07/02 11:05:13;;;;;;;2.20;1.53;;;21.20;99.90;;;;;;4991759;28;20481;-69
2023/07/02 11:07:41;;;;;;;1.43;1.33;;;21.20;99.90;;;;;;4991382;28;20492;-70
2023/07/02 11:10:09;;;;;;;2.57;2.03;;;21.40;99.90;;;;;;4991755;28;20466;-69
2023/07/02 11:12:37;;;;;;;1.87;1.77;;;21.20;99.90;;;;;;4991566;28;20811;-70
2023/07/02 11:15:11;;;;;;;2.43;1.90;;;21.10;99.90;;;;;;4991492;28;20466;-70
2023/07/02 11:17:39;;;;;;;1.33;1.23;;;20.90;99.90;;;;;;4991476;28;20464;-69
2023/07/02 11:20:08;;;;;;;1.40;1.40;;;20.90;99.90;;;;;;4991715;28;20953;-69
2023/07/02 11:22:36;;;;;;;3.70;1.77;;;21.00;99.90;;;;;;4990959;28;20476;-69
2023/07/02 11:25:19;;;;;;;1.77;1.67;;;21.30;99.90;;;;;;4992270;28;20468;-70
2023/07/02 11:27:46;;;;;;;2.00;1.83;;;21.40;99.90;;;;;;4991816;28;20476;-69
2023/07/02 11:30:14;;;;;;;1.93;1.80;;;21.70;99.90;;;;;;4991799;28;20465;-70
2023/07/02 11:32:51;;;;;;;2.97;2.50;;;22.00;99.90;;;;;;4991578;28;20473;-70
2023/07/02 11:35:18;;;;;;;1.53;1.43;;;22.30;99.90;;;;;;4991091;28;20593;-70
2023/07/02 11:37:45;;;;;;;2.00;1.90;;;22.40;99.90;;;;;;4991248;28;20469;-69
2023/07/02 11:40:13;;;;;;;2.93;2.67;;;22.60;99.90;;;;;;4991681;28;20945;-69
2023/07/02 11:42:41;;;;;;;3.30;2.33;;;22.80;99.90;;;;;;4991047;28;20487;-68
2023/07/02 11:45:09;;;;;;;1.97;1.87;;;22.90;99.90;;;;;;4991100;28;20466;-68
2023/07/02 11:47:36;;;;;;;5.83;2.60;;;22.90;99.90;;;;;;4991191;28;20485;-69
2023/07/02 11:50:02;;;;;;;8.03;2.30;;;22.90;99.90;;;;;;4991197;28;20461;-68
2023/07/02 11:52:29;;;;;;;2.03;1.93;;;22.90;99.90;;;;;;4991560;28;20858;-68
2023/07/02 11:54:56;;;;;;;2.07;1.57;;;22.80;99.90;;;;;;4990728;28;20480;-68
2023/07/02 11:57:23;;;;;;;2.37;1.90;;;22.70;99.90;;;;;;4991069;28;20988;-68
2023/07/02 11:59:52;;;;;;;3.97;1.23;;;22.60;99.90;;;;;;4990595;28;20468;-68
2023/07/02 12:02:19;;;;;;;1.83;1.70;;;22.70;99.90;;;;;;4990772;28;20527;-68
2023/07/02 12:04:45;;;;;;;2.83;1.30;;;22.80;99.90;;;;;;4991052;28;20562;-68
2023/07/02 12:07:13;;;;;;;1.50;1.50;;;22.80;99.90;;;;;;4991288;28;20482;-68
2023/07/02 12:09:40;;;;;;;1.07;1.00;;;23.00;99.90;;;;;;4990736;28;20943;-68
2023/07/02 12:12:07;;;;;;;0.50;0.50;;;22.90;99.90;;;;;;4991080;28;20488;-68
2023/07/02 12:14:34;;;;;;;1.00;1.00;;;22.70;99.90;;;;;;4990180;28;20468;-68
2023/07/02 12:17:02;;;;;;;1.07;1.03;;;22.60;99.90;;;;;;4990860;28;20474;-68
2023/07/02 12:19:28;;;;;;;0.70;0.70;;;22.60;99.90;;;;;;4990755;28;20471;-68
2023/07/02 12:21:55;;;;;;;3.17;2.27;;;22.50;99.90;;;;;;4990816;28;20522;-69
2023/07/02 12:24:22;;;;;;;6.63;2.03;;;22.60;99.90;;;;;;4990078;28;20464;-68
2023/07/02 12:26:48;;;;;;;2.10;2.00;;;22.60;99.90;;;;;;4990824;28;20488;-68
2023/07/02 12:29:15;;;;;;;2.37;2.17;;;22.60;99.90;;;;;;4990347;28;20476;-68
2023/07/02 12:31:42;;;;;;;2.10;1.50;;;22.70;99.90;;;;;;4990916;28;20637;-68
2023/07/02 12:34:10;;;;;;;2.57;1.80;;;22.60;99.90;;;;;;4990350;28;20468;-68
2023/07/02 12:36:37;;;;;;;1.97;1.80;;;22.40;99.90;;;;;;4990821;28;20467;-69
2023/07/02 12:39:03;;;;;;;1.80;1.50;;;22.40;99.90;;;;;;4990467;28;20772;-69
2023/07/02 12:41:30;;;;;;;2.20;1.50;;;22.50;99.90;;;;;;4990914;28;20487;-68
2023/07/02 12:43:57;;;;;;;1.17;1.17;;;22.60;99.90;;;;;;4990000;28;20469;-68
2023/07/02 12:46:24;;;;;;;2.97;1.20;;;22.60;99.90;;;;;;4991075;28;20466;-68
2023/07/02 12:48:50;;;;;;;2.87;1.73;;;22.60;99.90;;;;;;4990615;28;20934;-68
2023/07/02 12:51:19;;;;;;;1.07;1.07;;;22.80;99.90;;;;;;4990731;28;20490;-68
2023/07/02 12:53:45;;;;;;;0.97;0.97;;;22.80;99.90;;;;;;4989594;28;20861;-68
2023/07/02 12:56:12;;;;;;;5.90;1.30;;;22.70;99.90;;;;;;4989703;28;20537;-68
2023/07/02 12:58:38;;;;;;;1.87;1.77;;;22.70;99.90;;;;;;4989417;28;20572;-68
2023/07/02 13:01:05;;;;;;;3.57;1.47;;;22.60;99.90;;;;;;4993518;28;20666;-68
2023/07/02 13:03:32;;;;;;;0.90;0.90;;;22.50;99.90;;;;;;4993290;28;20462;-68
2023/07/02 13:05:59;;;;;;;2.60;1.50;;;22.60;99.90;;;;;;4993194;28;20581;-68
2023/07/02 13:08:27;;;;;;;1.47;1.47;;;22.70;99.90;;;;;;4993023;28;20978;-67
2023/07/02 13:10:53;;;;;;;0.80;0.80;;;22.80;99.90;;;;;;4993298;28;20491;-69
2023/07/02 13:13:20;;;;;;;1.40;1.40;;;22.90;99.90;;;;;;4992697;28;20493;-68
2023/07/02 13:15:47;;;;;;;1.17;1.17;;;22.90;99.90;;;;;;4993250;28;20842;-68
2023/07/02 13:18:13;;;;;;;1.20;1.10;;;22.70;99.90;;;;;;4993214;28;20485;-69
2023/07/02 13:20:40;;;;;;;1.47;1.37;;;22.50;99.90;;;;;;4993323;28;20495;-68
2023/07/02 13:23:07;;;;;;;2.60;1.10;;;22.40;99.90;;;;;;4992589;28;20488;-67
2023/07/02 13:25:35;;;;;;;1.67;1.30;;;22.40;99.90;;;;;;4992980;28;20463;-68
2023/07/02 13:28:02;;;;;;;1.63;1.50;;;22.30;99.90;;;;;;4992747;28;20472;-69
2023/07/02 13:30:30;;;;;;;1.90;1.80;;;22.10;99.90;;;;;;4993026;28;20970;-68
2023/07/02 13:32:57;;;;;;;1.70;1.70;;;22.00;99.90;;;;;;4992952;28;20515;-68
2023/07/02 13:35:24;;;;;;;1.20;1.20;;;22.20;99.90;;;;;;4992888;28;20544;-68
2023/07/02 13:37:51;;;;;;;3.73;1.00;;;22.40;99.90;;;;;;4992481;28;20526;-68
2023/07/02 13:40:18;;;;;;;1.53;1.53;;;22.60;99.90;;;;;;4992800;28;20467;-69
2023/07/02 13:42:46;;;;;;;0.67;0.67;;;22.80;99.90;;;;;;4992194;28;20563;-68
2023/07/02 13:45:13;;;;;;;1.20;1.20;;;22.90;99.90;;;;;;4992612;28;20520;-68
2023/07/02 13:47:39;;;;;;;1.07;0.90;;;22.80;99.90;;;;;;4992713;28;20948;-67
2023/07/02 13:50:07;;;;;;;1.43;1.33;;;22.80;99.90;;;;;;4992927;28;20469;-69
2023/07/02 13:52:34;;;;;;;1.10;1.10;;;22.90;99.90;;;;;;4992271;28;20494;-67
2023/07/02 13:55:00;;;;;;;1.70;1.00;;;22.90;99.90;;;;;;4992774;28;20475;-67
2023/07/02 13:57:27;;;;;;;1.23;1.23;;;22.90;99.90;;;;;;4992999;28;20589;-67
2023/07/02 13:59:56;;;;;;;0.93;0.93;;;22.90;99.90;;;;;;4991999;28;20472;-69
2023/07/02 14:02:23;;;;;;;2.10;0.90;;;22.80;99.90;;;;;;4992421;28;20486;-67
2023/07/02 14:04:50;;;;;;;0.70;0.70;;;22.80;99.90;;;;;;4992259;28;20546;-67
2023/07/02 14:07:17;;;;;;;9.37;0.80;;;22.90;99.90;;;;;;4992980;28;20463;-67
2023/07/02 14:09:43;;;;;;;1.60;0.97;;;23.00;99.90;;;;;;4991916;28;20571;-67
2023/07/02 14:12:11;;;;;;;3.33;1.33;;;23.00;99.90;;;;;;4992628;28;20476;-67
2023/07/02 14:14:38;;;;;;;4.17;1.43;;;22.90;99.90;;;;;;4991833;28;20491;-67
2023/07/02 14:17:07;;;;;;;1.10;1.00;;;22.70;99.90;;;;;;4992643;28;20559;-67
2023/07/02 14:19:34;;;;;;;2.57;1.40;;;22.50;99.90;;;;;;4992163;28;20487;-67
2023/07/02 14:22:00;;;;;;;1.13;1.13;;;22.50;99.90;;;;;;4992815;28;20502;-67
2023/07/02 14:24:30;;;;;;;3.03;2.30;;;22.30;99.90;;;;;;4991929;28;20461;-67
2023/07/02 14:26:57;;;;;;;0.80;0.80;;;22.10;99.90;;;;;;4993363;28;20466;-67
2023/07/02 14:29:23;;;;;;;2.30;1.73;;;22.10;99.90;;;;;;4994396;28;20474;-67
2023/07/02 14:31:50;;;;;;;5.40;1.30;;;22.10;99.90;;;;;;4995473;28;20666;-68
2023/07/02 14:34:18;;;;;;;0.83;0.83;;;22.10;99.90;;;;;;4994235;28;20465;-68
2023/07/02 14:36:45;;;;;;;1.10;1.00;;;22.30;99.90;;;;;;4992872;28;20481;-67
2023/07/02 14:39:12;;;;;;;1.47;1.37;;;22.60;99.90;;;;;;4991539;28;20521;-68
2023/07/02 14:41:38;;;;;;;1.50;0.90;;;22.50;99.90;;;;;;4991914;28;20494;-67
2023/07/02 14:44:05;;;;;;;1.20;1.20;;;22.40;99.90;;;;;;4990986;28;20861;-67
2023/07/02 14:46:32;;;;;;;1.20;1.10;;;22.40;99.90;;;;;;4991702;28;20466;-67
2023/07/02 14:48:59;;;;;;;1.40;1.30;;;22.40;99.90;;;;;;4991587;28;20470;-69
2023/07/02 14:51:27;;;;;;;1.00;1.00;;;22.40;99.90;;;;;;4991853;28;20577;-67
2023/07/02 14:53:55;;;;;;;3.07;0.83;;;22.50;99.90;;;;;;4991263;28;20904;-67
2023/07/02 14:56:22;;;;;;;1.03;1.03;;;22.50;99.90;;;;;;4991612;28;20566;-67
2023/07/02 14:58:50;;;;;;;1.23;1.23;;;22.40;99.90;;;;;;4991227;28;20472;-67
2023/07/02 15:01:17;;;;;;;1.97;1.30;;;22.20;99.90;;;;;;4991399;28;20490;-67
2023/07/02 15:03:44;;;;;;;4.30;1.53;;;22.00;99.90;;;;;;4991772;28;20942;-67
2023/07/02 15:06:14;;;;;;;0.93;0.93;;;22.20;99.90;;;;;;4991150;28;20501;-68
2023/07/02 15:08:42;;;;;;;1.70;1.63;;;22.30;99.90;;;;;;4991306;28;20954;-67
2023/07/02 15:11:10;;;;;;;2.20;1.03;;;22.30;99.90;;;;;;4991228;28;21002;-67
2023/07/02 15:13:37;;;;;;;1.20;1.20;;;22.60;99.90;;;;;;4990714;28;20459;-67
2023/07/02 15:16:04;;;;;;;0.97;0.97;;;22.60;99.90;;;;;;4990727;28;20772;-67
2023/07/02 15:18:31;;;;;;;2.03;2.03;;;22.30;99.90;;;;;;4991270;28;20556;-67
2023/07/02 15:20:58;;;;;;;1.03;1.03;;;22.10;99.90;;;;;;4991198;28;20485;-68
2023/07/02 15:23:26;;;;;;;1.43;1.40;;;22.10;99.90;;;;;;4990349;28;20855;-68
2023/07/02 15:25:55;;;;;;;5.50;1.43;;;22.10;99.90;;;;;;4990894;28;20557;-69
2023/07/02 15:28:23;;;;;;;0.90;0.90;;;22.10;99.90;;;;;;4990416;28;20519;-67
2023/07/02 15:30:53;;;;;;;1.03;1.00;;;22.00;99.90;;;;;;4990854;28;20493;-68
2023/07/02 15:33:20;;;;;;;0.87;0.87;;;21.90;99.90;;;;;;4991507;28;20462;-68
2023/07/02 15:35:47;;;;;;;1.60;1.50;;;21.80;99.90;;;;;;4991130;28;20469;-68
2023/07/02 15:38:13;;;;;;;1.57;1.47;;;21.70;99.90;;;;;;4990787;28;20470;-68
2023/07/02 15:40:40;;;;;;;1.13;1.13;;;21.60;99.90;;;;;;4991076;28;20917;-67
2023/07/02 15:43:09;;;;;;;1.33;1.10;;;21.60;99.90;;;;;;4990059;28;20488;-68
2023/07/02 15:45:35;;;;;;;1.37;1.27;;;21.80;99.90;;;;;;4990628;28;20561;-68
2023/07/02 15:48:02;;;;;;;0.93;0.90;;;21.70;99.90;;;;;;4990876;28;20470;-68
2023/07/02 15:50:30;;;;;;;3.37;1.40;;;21.70;99.90;;;;;;4990957;28;20464;-68
2023/07/02 15:52:56;;;;;;;1.97;1.37;;;21.70;99.90;;;;;;4990441;28;20982;-68
2023/07/02 15:55:23;;;;;;;1.10;1.10;;;21.70;99.90;;;;;;4990461;28;20481;-68
2023/07/02 15:57:51;;;;;;;3.67;1.37;;;21.90;99.90;;;;;;4990207;28;20465;-68
2023/07/02 16:00:20;;;;;;;3.20;1.77;;;22.00;99.90;;;;;;4990558;28;20537;-68
2023/07/02 16:02:46;;;;;;;2.83;1.87;;;21.70;99.90;;;;;;4990846;28;20493;-68
2023/07/02 16:05:13;;;;;;;6.97;1.37;;;21.50;99.90;;;;;;4990481;28;20468;-67
2023/07/02 16:07:40;;;;;;;1.77;1.67;;;21.30;99.90;;;;;;4990452;28;20471;-68
2023/07/02 16:10:11;;;;;;;0.67;0.67;;;21.20;99.90;;;;;;4990526;28;20465;-68
2023/07/02 16:12:39;;;;;;;2.50;1.30;;;21.10;99.90;;;;;;4990394;28;20497;-68
2023/07/02 16:15:07;;;;;;;0.80;0.80;;;21.30;99.90;;;;;;4990718;28;20571;-68
2023/07/02 16:17:35;;;;;;;0.70;0.70;;;21.40;99.90;;;;;;4990782;28;20805;-68
2023/07/02 16:20:02;;;;;;;1.53;1.43;;;21.50;99.90;;;;;;4991475;28;20468;-68
2023/07/02 16:22:29;;;;;;;6.90;0.90;;;21.40;99.90;;;;;;4990368;28;20488;-67
2023/07/02 16:24:55;;;;;;;1.40;0.97;;;21.60;99.90;;;;;;4989990;28;20472;-68
2023/07/02 16:27:22;;;;;;;2.60;1.70;;;21.50;99.90;;;;;;4990629;28;20470;-68
2023/07/02 16:29:49;;;;;;;0.97;0.97;;;21.30;99.90;;;;;;4989870;28;20930;-68
2023/07/02 16:32:17;;;;;;;1.43;0.80;;;21.10;99.90;;;;;;4990628;28;20502;-68
2023/07/02 16:34:45;;;;;;;1.10;1.00;;;20.90;99.90;;;;;;4993329;28;20562;-67
2023/07/02 16:37:12;;;;;;;3.40;1.67;;;20.90;99.90;;;;;;4994517;28;20464;-67
2023/07/02 16:39:39;;;;;;;3.33;1.27;;;20.90;99.90;;;;;;4993645;28;20853;-68
2023/07/02 16:42:07;;;;;;;1.90;1.27;;;21.10;99.90;;;;;;4994042;28;20980;-68
2023/07/02 16:44:35;;;;;;;1.30;1.20;;;21.10;99.90;;;;;;4993863;28;20610;-68
2023/07/02 16:47:03;;;;;;;5.00;1.47;;;21.20;99.90;;;;;;4994822;28;20854;-68
2023/07/02 16:49:30;;;;;;;1.50;1.30;;;21.10;99.90;;;;;;4993907;28;20468;-68